Hosford, Florida
Current Conditions -  °F | °C
As of 4:55 PM on Monday 20 Oct 2014 (Local Time) from K2J9 Reporting Station
Scattered Clouds Scattered Clouds  
Wind Chill: 82°   Ceiling: Unl
Heat Index: 82°   Visibility: 10mi
Dew Point: 59°   Wind: 0mph
Humidity: 45%   Direction: NA
Pressure: 29.98"   Gusts: NA
Location:  30.39°N, 84.8°W
Report Text: K2J9 202055Z AUTO 00000KT 10SM SCT048 28/15 A2998 RMK AO1
Loading
Personal Weather Stations






























Interactive Weather Map New forecast layout! Learn more

10-Day Weather Forecast

Advertisements
Track Severe Weather on mobile